createdAt,value
2023-07-07T00:00:09.441Z,12.06
2023-07-07T00:01:09.425Z,12.10
2023-07-07T00:02:09.498Z,12.07
2023-07-07T00:03:09.448Z,12.10
2023-07-07T00:04:09.448Z,12.06
2023-07-07T00:05:09.399Z,12.04
2023-07-07T00:06:09.384Z,12.00
2023-07-07T00:07:09.390Z,12.00
2023-07-07T00:08:09.402Z,12.00
2023-07-07T00:09:09.370Z,12.07
2023-07-07T00:10:09.383Z,12.07
2023-07-07T00:11:09.345Z,12.00
2023-07-07T00:12:09.336Z,11.99
2023-07-07T00:13:09.347Z,11.97
2023-07-07T00:14:09.323Z,11.99
2023-07-07T00:15:09.305Z,11.88
2023-07-07T00:16:09.337Z,12.04
2023-07-07T00:17:09.296Z,12.06
2023-07-07T00:18:09.291Z,11.91
2023-07-07T00:19:59.233Z,11.91
2023-07-07T00:20:59.589Z,11.83
2023-07-07T00:21:59.248Z,11.90
2023-07-07T00:22:59.208Z,11.80
2023-07-07T00:23:59.201Z,11.84
2023-07-07T00:24:59.199Z,11.83
2023-07-07T00:25:59.196Z,11.73
2023-07-07T00:26:59.206Z,11.72
2023-07-07T00:27:59.168Z,11.72
2023-07-07T00:29:00.292Z,11.65
2023-07-07T00:30:00.270Z,11.73
2023-07-07T00:31:00.614Z,11.72
2023-07-07T00:32:00.251Z,11.73
2023-07-07T00:33:00.264Z,11.66
2023-07-07T00:34:00.237Z,11.62
2023-07-07T00:35:00.244Z,11.70
2023-07-07T00:36:00.197Z,11.65
2023-07-07T00:37:00.226Z,11.59
2023-07-07T00:38:00.199Z,11.62
2023-07-07T00:39:00.193Z,11.59
2023-07-07T00:40:00.227Z,11.57
2023-07-07T00:41:00.283Z,11.50
2023-07-07T00:42:00.164Z,11.55
2023-07-07T00:43:00.145Z,11.54
2023-07-07T00:44:00.164Z,11.51
2023-07-07T00:45:00.126Z,11.50
2023-07-07T00:46:00.161Z,11.48
2023-07-07T00:47:00.155Z,11.45
2023-07-07T00:48:00.207Z,11.48
2023-07-07T00:49:00.104Z,11.47
2023-07-07T00:50:00.138Z,11.44
2023-07-07T00:51:00.262Z,11.48
2023-07-07T00:52:00.102Z,11.35
2023-07-07T00:53:00.059Z,11.37
2023-07-07T00:54:00.057Z,11.44
2023-07-07T00:55:00.062Z,11.43
2023-07-07T00:56:00.054Z,11.37
2023-07-07T00:57:00.031Z,11.36
2023-07-07T00:58:00.017Z,11.32
2023-07-07T00:59:00.010Z,11.40
2023-07-07T01:00:00.042Z,11.29
2023-07-07T01:01:00.320Z,11.14
2023-07-07T01:02:00.094Z,11.19
2023-07-07T01:03:00.029Z,11.11
2023-07-07T01:04:00.024Z,11.10
2023-07-07T01:04:59.983Z,11.05
2023-07-07T01:05:59.966Z,11.08
2023-07-07T01:06:59.973Z,10.99
2023-07-07T01:07:59.952Z,10.97
2023-07-07T01:08:59.956Z,11.07
2023-07-07T01:10:00.634Z,11.05
2023-07-07T01:11:00.926Z,11.00
2023-07-07T01:11:59.934Z,10.93
2023-07-07T01:12:59.889Z,10.93
2023-07-07T01:13:59.937Z,10.87
2023-07-07T01:14:59.892Z,10.89
2023-07-07T01:15:59.930Z,10.90
2023-07-07T01:16:59.871Z,10.89
2023-07-07T01:17:59.889Z,10.86
2023-07-07T01:18:59.888Z,10.76
2023-07-07T01:19:59.863Z,10.81
2023-07-07T01:20:59.848Z,10.87
2023-07-07T01:21:59.848Z,10.81
2023-07-07T01:22:59.824Z,10.78
2023-07-07T01:23:59.812Z,10.76
2023-07-07T01:24:59.810Z,10.68
2023-07-07T01:25:59.801Z,10.71
2023-07-07T01:26:59.815Z,10.74
2023-07-07T01:27:59.802Z,10.63
2023-07-07T01:28:59.833Z,10.60
2023-07-07T01:29:59.782Z,10.60
2023-07-07T01:30:59.996Z,10.59
2023-07-07T01:31:59.843Z,10.54
2023-07-07T01:32:59.809Z,10.63
2023-07-07T01:33:59.763Z,10.61
2023-07-07T01:34:59.726Z,10.69
2023-07-07T01:35:59.726Z,10.72
2023-07-07T01:36:59.721Z,10.68
2023-07-07T01:37:59.715Z,10.61
2023-07-07T01:38:59.693Z,10.69
2023-07-07T01:39:59.689Z,10.69
2023-07-07T01:41:00.679Z,10.69
2023-07-07T01:41:59.669Z,10.63
2023-07-07T01:43:00.621Z,10.64
2023-07-07T01:43:59.657Z,10.72
2023-07-07T01:44:59.707Z,10.68
2023-07-07T01:45:59.660Z,10.68
2023-07-07T01:46:59.632Z,10.72
2023-07-07T01:47:59.721Z,10.67
2023-07-07T01:48:59.609Z,10.68
2023-07-07T01:49:59.644Z,10.69
2023-07-07T01:50:59.849Z,10.61
2023-07-07T01:51:59.612Z,10.68
2023-07-07T01:52:59.585Z,10.64
2023-07-07T01:53:59.589Z,10.61
2023-07-07T01:54:59.619Z,10.59
2023-07-07T01:55:59.543Z,10.63
2023-07-07T01:56:59.548Z,10.61
2023-07-07T01:57:59.536Z,10.54
2023-07-07T01:59:00.141Z,10.37
2023-07-07T01:59:59.513Z,10.46
2023-07-07T02:00:59.617Z,10.44
2023-07-07T02:01:59.565Z,10.38
2023-07-07T02:02:59.543Z,10.30
2023-07-07T02:03:59.508Z,10.26
2023-07-07T02:04:59.542Z,10.33
2023-07-07T02:05:59.484Z,10.26
2023-07-07T02:06:59.455Z,10.30
2023-07-07T02:07:59.644Z,10.26
2023-07-07T02:08:59.458Z,10.28
2023-07-07T02:09:59.473Z,10.30
2023-07-07T02:10:59.724Z,10.26
2023-07-07T02:11:59.419Z,10.30
2023-07-07T02:12:59.480Z,10.28
2023-07-07T02:13:59.480Z,10.30
2023-07-07T02:14:59.430Z,10.28
2023-07-07T02:15:59.457Z,10.30
2023-07-07T02:16:59.391Z,10.30
2023-07-07T02:17:59.471Z,10.23
2023-07-07T02:18:59.364Z,10.22
2023-07-07T02:19:59.370Z,10.26
2023-07-07T02:20:59.624Z,10.28
2023-07-07T02:21:59.382Z,10.25
2023-07-07T02:22:59.336Z,10.20
2023-07-07T02:23:59.323Z,10.26
2023-07-07T02:24:59.321Z,10.33
2023-07-07T02:25:59.301Z,10.17
2023-07-07T02:26:59.370Z,10.20
2023-07-07T02:27:59.311Z,10.17
2023-07-07T02:28:59.298Z,10.20
2023-07-07T02:29:59.275Z,10.19
2023-07-07T02:30:59.584Z,10.16
2023-07-07T02:31:59.372Z,10.16
2023-07-07T02:32:59.274Z,10.16
2023-07-07T02:33:59.251Z,10.19
2023-07-07T02:34:59.228Z,10.19
2023-07-07T02:35:59.230Z,10.09
2023-07-07T02:36:59.243Z,10.13
2023-07-07T02:37:59.212Z,10.16
2023-07-07T02:38:59.206Z,10.16
2023-07-07T02:39:59.197Z,10.17
2023-07-07T02:40:59.431Z,10.13
2023-07-07T02:41:59.187Z,10.07
2023-07-07T02:42:59.213Z,10.02
2023-07-07T02:43:59.184Z,10.09
2023-07-07T02:44:59.151Z,10.16
2023-07-07T02:45:59.170Z,10.12
2023-07-07T02:46:59.197Z,10.09
2023-07-07T02:47:59.189Z,10.09
2023-07-07T02:48:59.139Z,10.07
2023-07-07T02:49:59.127Z,10.01
2023-07-07T02:50:59.456Z,10.09
2023-07-07T02:51:59.099Z,10.04
2023-07-07T02:52:59.090Z,9.94
2023-07-07T02:53:59.081Z,9.97
2023-07-07T02:54:59.713Z,9.98
2023-07-07T02:55:59.057Z,9.98
2023-07-07T02:56:59.058Z,10.01
2023-07-07T02:57:59.046Z,9.94
2023-07-07T02:58:59.039Z,9.98
2023-07-07T02:59:59.027Z,9.94
2023-07-07T03:00:59.297Z,10.02
2023-07-07T03:01:59.015Z,9.97
2023-07-07T03:02:59.110Z,9.95
2023-07-07T03:03:59.131Z,9.98
2023-07-07T03:04:58.994Z,10.04
2023-07-07T03:05:58.994Z,10.07
2023-07-07T03:06:59.732Z,10.09
2023-07-07T03:07:59.001Z,10.02
2023-07-07T03:08:59.004Z,10.04
2023-07-07T03:09:59.647Z,10.02
2023-07-07T03:10:59.941Z,10.10
2023-07-07T03:11:58.961Z,10.09
2023-07-07T03:12:58.925Z,10.10
2023-07-07T03:13:58.980Z,10.04
2023-07-07T03:14:58.918Z,10.04
2023-07-07T03:15:58.899Z,9.92
2023-07-07T03:16:59.008Z,10.04
2023-07-07T03:17:58.934Z,9.98
2023-07-07T03:18:58.901Z,9.98
2023-07-07T03:19:59.916Z,10.01
2023-07-07T03:20:59.117Z,9.97
2023-07-07T03:21:58.860Z,9.99
2023-07-07T03:22:58.854Z,9.94
2023-07-07T03:23:58.894Z,9.87
2023-07-07T03:24:58.858Z,9.89
2023-07-07T03:25:58.911Z,9.91
2023-07-07T03:26:58.859Z,9.83
2023-07-07T03:27:58.857Z,9.92
2023-07-07T03:28:58.806Z,9.97
2023-07-07T03:29:58.833Z,9.95
2023-07-07T03:30:59.038Z,9.87
2023-07-07T03:31:58.795Z,9.94
2023-07-07T03:32:59.756Z,9.94
2023-07-07T03:33:58.764Z,9.91
2023-07-07T03:34:58.768Z,9.95
2023-07-07T03:35:58.748Z,9.94
2023-07-07T03:36:58.763Z,9.94
2023-07-07T03:37:58.748Z,9.95
2023-07-07T03:38:58.750Z,9.98
2023-07-07T03:39:58.731Z,9.94
2023-07-07T03:40:58.918Z,9.99
2023-07-07T03:41:58.716Z,9.97
2023-07-07T03:42:58.685Z,9.94
2023-07-07T03:43:58.689Z,10.19
2023-07-07T03:44:58.685Z,10.37
2023-07-07T03:45:58.677Z,10.69
2023-07-07T03:46:58.851Z,10.90
2023-07-07T03:47:58.685Z,11.29
2023-07-07T03:48:58.641Z,11.54
2023-07-07T03:49:58.631Z,11.78
2023-07-07T03:50:58.800Z,12.03
2023-07-07T03:51:58.626Z,12.12
2023-07-07T03:52:58.629Z,12.20
2023-07-07T03:53:58.603Z,12.60
2023-07-07T03:54:58.601Z,13.01
2023-07-07T03:55:58.592Z,13.11
2023-07-07T03:56:58.584Z,13.35
2023-07-07T03:57:58.581Z,13.54
2023-07-07T03:58:58.562Z,13.59
2023-07-07T03:59:58.558Z,13.68
2023-07-07T04:00:58.673Z,13.93
2023-07-07T04:01:59.524Z,14.14
2023-07-07T04:02:58.657Z,14.51
2023-07-07T04:03:58.826Z,14.86
2023-07-07T04:04:58.670Z,14.88
2023-07-07T04:05:58.514Z,15.09
2023-07-07T04:06:58.488Z,15.31
2023-07-07T04:07:59.501Z,15.73
2023-07-07T04:08:58.488Z,16.23
2023-07-07T04:09:58.477Z,16.61
2023-07-07T04:10:58.705Z,17.11
2023-07-07T04:11:58.498Z,17.52
2023-07-07T04:12:58.454Z,17.87
2023-07-07T04:13:58.502Z,18.22
2023-07-07T04:14:58.448Z,18.52
2023-07-07T04:15:58.452Z,18.84
2023-07-07T04:16:58.477Z,19.21
2023-07-07T04:17:58.456Z,19.44
2023-07-07T04:18:58.393Z,19.67
2023-07-07T04:19:58.410Z,19.79
2023-07-07T04:20:58.574Z,20.14
2023-07-07T04:21:58.397Z,20.29
2023-07-07T04:22:58.765Z,20.65
2023-07-07T04:23:58.365Z,20.78
2023-07-07T04:24:58.355Z,20.63
2023-07-07T04:25:58.348Z,20.36
2023-07-07T04:26:58.361Z,20.29
2023-07-07T04:27:58.345Z,20.09
2023-07-07T04:28:58.336Z,20.19
2023-07-07T04:29:58.322Z,19.79
2023-07-07T04:30:58.582Z,19.30
2023-07-07T04:31:58.359Z,19.00
2023-07-07T04:32:58.351Z,19.30
2023-07-07T04:33:58.295Z,19.73
2023-07-07T04:34:58.265Z,19.96
2023-07-07T04:35:59.303Z,20.32
2023-07-07T04:36:58.257Z,20.19
2023-07-07T04:37:58.288Z,20.02
2023-07-07T04:38:58.261Z,19.51
2023-07-07T04:39:58.235Z,19.49
2023-07-07T04:40:58.389Z,19.47
2023-07-07T04:41:58.211Z,19.88
2023-07-07T04:42:58.236Z,20.13
2023-07-07T04:43:58.231Z,19.88
2023-07-07T04:44:58.206Z,19.64
2023-07-07T04:45:58.199Z,19.77
2023-07-07T04:46:58.184Z,19.94
2023-07-07T04:47:58.209Z,20.34
2023-07-07T04:48:58.177Z,20.87
2023-07-07T04:49:58.195Z,21.11
2023-07-07T04:50:58.410Z,21.36
2023-07-07T04:51:58.215Z,21.66
2023-07-07T04:52:58.149Z,21.58
2023-07-07T04:53:58.139Z,21.54
2023-07-07T04:54:58.137Z,21.77
2023-07-07T04:55:58.162Z,21.85
2023-07-07T04:56:58.118Z,21.50
2023-07-07T04:57:58.105Z,21.37
2023-07-07T04:58:58.106Z,21.72
2023-07-07T04:59:58.093Z,21.95
2023-07-07T05:00:58.384Z,21.57
2023-07-07T05:01:58.152Z,21.62
2023-07-07T05:02:58.119Z,21.66
2023-07-07T05:03:58.151Z,22.33
2023-07-07T05:04:58.045Z,22.62
2023-07-07T05:05:58.095Z,22.88
2023-07-07T05:06:58.098Z,23.02
2023-07-07T05:07:58.014Z,23.32
2023-07-07T05:08:58.034Z,23.48
2023-07-07T05:09:58.005Z,24.02
2023-07-07T05:10:58.966Z,24.42
2023-07-07T05:11:59.762Z,24.81
2023-07-07T05:12:58.039Z,25.10
2023-07-07T05:13:58.141Z,25.32
2023-07-07T05:14:58.071Z,25.41
2023-07-07T05:15:57.996Z,25.59
2023-07-07T05:16:57.961Z,25.66
2023-07-07T05:18:00.369Z,25.81
2023-07-07T05:18:59.005Z,26.22
2023-07-07T05:19:58.689Z,26.25
2023-07-07T05:20:58.241Z,26.34
2023-07-07T05:21:57.922Z,26.29
2023-07-07T05:22:57.953Z,26.25
2023-07-07T05:23:57.919Z,26.41
2023-07-07T05:24:57.940Z,26.56
2023-07-07T05:25:57.906Z,26.60
2023-07-07T05:26:57.882Z,26.66
2023-07-07T05:27:57.941Z,26.88
2023-07-07T05:28:58.010Z,27.22
2023-07-07T05:29:57.881Z,27.54
2023-07-07T05:30:58.369Z,27.85
2023-07-07T05:31:57.882Z,28.15
2023-07-07T05:32:57.868Z,28.44
2023-07-07T05:33:57.870Z,28.51
2023-07-07T05:34:57.911Z,28.62
2023-07-07T05:35:57.844Z,28.93
2023-07-07T05:36:58.707Z,29.27
2023-07-07T05:37:57.850Z,29.08
2023-07-07T05:38:57.847Z,28.93
2023-07-07T05:39:57.828Z,28.86
2023-07-07T05:40:58.471Z,28.37
2023-07-07T05:41:57.797Z,28.41
2023-07-07T05:42:57.782Z,28.41
2023-07-07T05:43:57.783Z,28.08
2023-07-07T05:44:57.761Z,28.05
2023-07-07T05:45:58.237Z,28.27
2023-07-07T05:46:57.747Z,28.52
2023-07-07T05:47:58.855Z,28.74
2023-07-07T05:48:57.742Z,28.78
2023-07-07T05:49:57.750Z,29.05
2023-07-07T05:50:59.745Z,29.38
2023-07-07T05:51:57.731Z,29.72
2023-07-07T05:52:57.713Z,29.93
2023-07-07T05:53:57.781Z,30.30
2023-07-07T05:54:57.745Z,30.39
2023-07-07T05:55:57.697Z,30.35
2023-07-07T05:56:57.681Z,30.48
2023-07-07T05:57:57.691Z,30.61
2023-07-07T05:58:57.683Z,30.70
2023-07-07T05:59:58.296Z,30.77
2023-07-07T06:00:57.985Z,30.73
2023-07-07T06:01:58.346Z,30.61
2023-07-07T06:02:57.666Z,30.32
2023-07-07T06:03:57.683Z,30.16
2023-07-07T06:04:57.636Z,29.56
2023-07-07T06:05:57.619Z,29.27
2023-07-07T06:06:57.641Z,29.34
2023-07-07T06:07:57.600Z,29.84
2023-07-07T06:08:57.636Z,30.27
2023-07-07T06:09:57.614Z,30.61
2023-07-07T06:10:57.924Z,30.99
2023-07-07T06:11:57.586Z,31.03
2023-07-07T06:12:57.576Z,31.03
2023-07-07T06:13:57.618Z,31.27
2023-07-07T06:14:57.561Z,30.70
2023-07-07T06:15:58.365Z,29.68
2023-07-07T06:16:57.550Z,29.07
2023-07-07T06:17:59.138Z,29.01
2023-07-07T06:18:57.543Z,29.36
2023-07-07T06:19:57.520Z,29.76
2023-07-07T06:20:57.842Z,30.32
2023-07-07T06:21:57.515Z,30.84
2023-07-07T06:22:57.533Z,31.15
2023-07-07T06:23:57.501Z,31.52
2023-07-07T06:24:57.525Z,31.61
2023-07-07T06:25:57.497Z,31.85
2023-07-07T06:26:57.474Z,32.14
2023-07-07T06:27:57.492Z,32.33
2023-07-07T06:28:57.453Z,32.27
2023-07-07T06:29:57.469Z,31.92
2023-07-07T06:30:57.759Z,31.54
2023-07-07T06:31:57.482Z,31.92
2023-07-07T06:32:57.483Z,32.22
2023-07-07T06:33:57.463Z,32.21
2023-07-07T06:34:57.415Z,32.41
2023-07-07T06:35:57.416Z,32.53
2023-07-07T06:36:57.448Z,32.53
2023-07-07T06:37:57.411Z,32.83
2023-07-07T06:38:57.450Z,32.93
2023-07-07T06:39:57.393Z,33.12
2023-07-07T06:40:57.693Z,33.42
2023-07-07T06:41:57.372Z,33.57
2023-07-07T06:42:57.368Z,33.92
2023-07-07T06:43:57.832Z,34.03
2023-07-07T06:44:57.363Z,34.20
2023-07-07T06:45:57.377Z,34.30
2023-07-07T06:46:57.356Z,34.14
2023-07-07T06:47:57.378Z,33.90
2023-07-07T06:48:57.694Z,33.87
2023-07-07T06:49:58.316Z,33.96
2023-07-07T06:50:57.495Z,34.20
2023-07-07T06:51:57.388Z,34.57
2023-07-07T06:52:57.319Z,34.61
2023-07-07T06:53:57.293Z,34.60
2023-07-07T06:54:57.310Z,34.36
2023-07-07T06:55:57.283Z,33.76
2023-07-07T06:56:57.272Z,33.65
2023-07-07T06:57:57.285Z,33.69
2023-07-07T06:58:57.818Z,33.50
2023-07-07T06:59:57.284Z,33.61
2023-07-07T07:00:57.529Z,33.47
2023-07-07T07:01:57.260Z,33.28
2023-07-07T07:02:57.929Z,33.45
2023-07-07T07:03:57.369Z,33.77
2023-07-07T07:04:57.219Z,33.99
2023-07-07T07:05:57.288Z,34.43
2023-07-07T07:06:57.235Z,34.51
2023-07-07T07:07:57.213Z,34.48
2023-07-07T07:08:57.205Z,34.50
2023-07-07T07:09:57.191Z,33.98
2023-07-07T07:10:57.292Z,33.74
2023-07-07T07:11:57.181Z,33.80
2023-07-07T07:12:57.176Z,34.03
2023-07-07T07:13:57.184Z,34.35
2023-07-07T07:14:57.147Z,34.73
2023-07-07T07:15:57.179Z,34.89
2023-07-07T07:16:57.206Z,34.85
2023-07-07T07:17:57.170Z,34.10
2023-07-07T07:18:57.158Z,32.63
2023-07-07T07:19:57.118Z,32.71
2023-07-07T07:20:57.482Z,32.58
2023-07-07T07:21:57.123Z,32.48
2023-07-07T07:22:57.108Z,31.97
2023-07-07T07:23:57.121Z,32.18
2023-07-07T07:24:57.358Z,32.49
2023-07-07T07:25:57.120Z,33.22
2023-07-07T07:26:57.067Z,33.67
2023-07-07T07:27:57.057Z,34.25
2023-07-07T07:28:57.059Z,34.20
2023-07-07T07:29:57.082Z,34.05
2023-07-07T07:30:57.208Z,34.39
2023-07-07T07:31:57.064Z,34.75
2023-07-07T07:32:57.810Z,34.96
2023-07-07T07:33:57.014Z,35.30
2023-07-07T07:34:57.029Z,35.51
2023-07-07T07:35:57.002Z,35.60
2023-07-07T07:36:56.996Z,35.48
2023-07-07T07:37:57.007Z,35.27
2023-07-07T07:38:56.996Z,35.29
2023-07-07T07:39:56.975Z,35.39
2023-07-07T07:40:57.164Z,35.42
2023-07-07T07:41:56.966Z,35.07
2023-07-07T07:42:56.956Z,35.19
2023-07-07T07:43:56.941Z,34.95
2023-07-07T07:44:56.933Z,34.47
2023-07-07T07:45:56.953Z,33.50
2023-07-07T07:46:57.101Z,33.01
2023-07-07T07:47:56.971Z,32.41
2023-07-07T07:48:56.906Z,31.78
2023-07-07T07:49:56.918Z,31.49
2023-07-07T07:50:57.143Z,30.73
2023-07-07T07:51:56.890Z,30.88
2023-07-07T07:52:56.902Z,31.29
2023-07-07T07:53:56.896Z,31.93
2023-07-07T07:54:56.895Z,31.94
2023-07-07T07:55:56.871Z,32.73
2023-07-07T07:56:56.852Z,33.32
2023-07-07T07:57:56.864Z,33.71
2023-07-07T07:58:56.840Z,33.61
2023-07-07T07:59:56.823Z,33.86
2023-07-07T08:00:57.017Z,34.17
2023-07-07T08:01:56.896Z,34.43
2023-07-07T08:02:56.948Z,34.77
2023-07-07T08:03:56.915Z,35.07
2023-07-07T08:04:56.812Z,35.31
2023-07-07T08:05:56.790Z,35.49
2023-07-07T08:06:57.324Z,35.58
2023-07-07T08:07:56.771Z,35.48
2023-07-07T08:08:56.787Z,35.41
2023-07-07T08:09:56.764Z,35.29
2023-07-07T08:11:10.018Z,34.70
2023-07-07T08:11:59.369Z,34.01
2023-07-07T08:12:56.763Z,33.67
2023-07-07T08:13:56.743Z,33.43
2023-07-07T08:14:56.713Z,32.93
2023-07-07T08:15:56.805Z,32.63
2023-07-07T08:16:56.728Z,32.63
2023-07-07T08:17:56.863Z,32.87
2023-07-07T08:18:56.692Z,33.05
2023-07-07T08:19:56.681Z,33.04
2023-07-07T08:20:56.737Z,32.85
2023-07-07T08:21:56.669Z,32.60
2023-07-07T08:22:56.664Z,32.01
2023-07-07T08:23:56.645Z,31.44
2023-07-07T08:24:56.640Z,31.27
2023-07-07T08:26:57.638Z,30.69
2023-07-07T08:28:57.621Z,31.07
2023-07-07T08:29:56.621Z,31.25
2023-07-07T08:30:56.909Z,31.65
2023-07-07T08:31:56.593Z,31.70
2023-07-07T08:32:56.595Z,31.47
2023-07-07T08:34:00.850Z,31.33
2023-07-07T08:34:58.615Z,31.42
2023-07-07T08:35:56.739Z,31.43
2023-07-07T08:36:56.555Z,31.15
2023-07-07T08:37:56.547Z,31.00
2023-07-07T08:38:56.564Z,30.75
2023-07-07T08:39:56.548Z,30.48
2023-07-07T08:40:56.708Z,30.50
2023-07-07T08:41:56.558Z,30.68
2023-07-07T08:42:56.541Z,30.75
2023-07-07T08:43:56.514Z,30.97
2023-07-07T08:44:56.481Z,31.22
2023-07-07T08:45:58.463Z,31.54
2023-07-07T08:46:56.575Z,31.65
2023-07-07T08:47:56.541Z,31.59
2023-07-07T08:48:56.463Z,31.56
2023-07-07T08:49:57.345Z,31.77
2023-07-07T08:50:56.576Z,31.92
2023-07-07T08:51:57.771Z,32.12
2023-07-07T08:52:57.291Z,32.08
2023-07-07T08:54:57.416Z,32.21
2023-07-07T08:55:56.398Z,31.81
2023-07-07T08:56:56.391Z,31.36
2023-07-07T08:57:58.738Z,31.21
2023-07-07T08:58:57.413Z,30.87
2023-07-07T08:59:56.374Z,30.77
2023-07-07T09:00:56.664Z,30.72
2023-07-07T09:01:56.466Z,30.50
2023-07-07T09:02:56.470Z,30.25
2023-07-07T09:03:58.104Z,30.39
2023-07-07T09:04:56.460Z,30.35
2023-07-07T09:05:56.328Z,30.31
2023-07-07T09:06:56.317Z,30.40
2023-07-07T09:07:56.300Z,30.39
2023-07-07T09:08:56.318Z,30.59
2023-07-07T09:09:58.182Z,30.59
2023-07-07T09:10:56.446Z,30.65
2023-07-07T09:11:56.283Z,30.77
2023-07-07T09:12:56.274Z,30.92
2023-07-07T09:13:56.310Z,31.18
2023-07-07T09:14:56.287Z,31.40
2023-07-07T09:15:57.939Z,31.18
2023-07-07T09:16:57.913Z,31.14
2023-07-07T09:17:56.300Z,30.96
2023-07-07T09:18:56.235Z,30.90
2023-07-07T09:19:56.223Z,31.05
2023-07-07T09:20:57.181Z,30.97
2023-07-07T09:21:56.461Z,31.10
2023-07-07T09:22:56.202Z,31.29
2023-07-07T09:23:56.191Z,31.07
2023-07-07T09:24:56.819Z,30.87
2023-07-07T09:25:56.208Z,30.48
2023-07-07T09:26:56.201Z,30.40
2023-07-07T09:27:56.159Z,30.54
2023-07-07T09:28:56.144Z,30.15
2023-07-07T09:29:56.151Z,29.97
2023-07-07T09:30:56.195Z,29.36
2023-07-07T09:31:56.210Z,29.10
2023-07-07T09:32:56.146Z,29.10
2023-07-07T09:33:56.910Z,29.26
2023-07-07T09:34:56.114Z,29.08
2023-07-07T09:35:56.095Z,29.12
2023-07-07T09:36:56.103Z,29.13
2023-07-07T09:37:56.103Z,29.05
2023-07-07T09:38:56.096Z,28.89
2023-07-07T09:39:57.415Z,28.76
2023-07-07T09:40:56.294Z,28.23
2023-07-07T09:41:56.051Z,27.95
2023-07-07T09:42:56.037Z,27.65
2023-07-07T09:43:56.051Z,27.48
2023-07-07T09:44:56.022Z,27.37
2023-07-07T09:45:56.965Z,27.49
2023-07-07T09:46:56.084Z,27.42
2023-07-07T09:47:56.075Z,27.44
2023-07-07T09:48:56.066Z,27.54
2023-07-07T09:49:55.993Z,27.54
2023-07-07T09:50:56.163Z,27.33
2023-07-07T09:51:57.044Z,27.12
2023-07-07T09:52:55.964Z,27.10
2023-07-07T09:53:56.949Z,27.11
2023-07-07T09:54:55.949Z,27.03
2023-07-07T09:55:56.004Z,26.93
2023-07-07T09:56:55.943Z,26.95
2023-07-07T09:57:55.941Z,26.96
2023-07-07T09:58:55.932Z,26.96
2023-07-07T09:59:55.921Z,26.96
2023-07-07T10:00:55.930Z,26.77
2023-07-07T10:01:56.025Z,26.60
2023-07-07T10:02:55.926Z,26.53
2023-07-07T10:03:55.897Z,26.58
2023-07-07T10:04:55.873Z,26.63
2023-07-07T10:05:57.609Z,26.56
2023-07-07T10:06:55.889Z,26.60
2023-07-07T10:07:55.872Z,26.51
2023-07-07T10:08:55.838Z,26.60
2023-07-07T10:09:55.837Z,26.75
2023-07-07T10:10:55.838Z,26.88
2023-07-07T10:12:57.805Z,27.05
2023-07-07T10:13:55.825Z,27.08
2023-07-07T10:14:55.830Z,27.22
2023-07-07T10:15:55.943Z,27.33
2023-07-07T10:16:55.813Z,27.30
2023-07-07T10:17:57.598Z,27.29
2023-07-07T10:18:55.764Z,27.45
2023-07-07T10:19:55.763Z,27.54
2023-07-07T10:20:55.762Z,27.64
2023-07-07T10:21:55.745Z,27.78
2023-07-07T10:22:55.727Z,27.82
2023-07-07T10:23:55.725Z,27.73
2023-07-07T10:24:55.715Z,27.49
2023-07-07T10:25:55.744Z,27.14
2023-07-07T10:26:55.732Z,27.18
2023-07-07T10:27:55.682Z,27.03
2023-07-07T10:28:55.694Z,26.95
2023-07-07T10:29:55.693Z,27.12
2023-07-07T10:30:55.681Z,27.10
2023-07-07T10:31:55.731Z,27.17
2023-07-07T10:32:55.694Z,27.14
2023-07-07T10:33:55.679Z,27.21
2023-07-07T10:34:55.663Z,27.33
2023-07-07T10:35:55.643Z,27.21
2023-07-07T10:36:55.650Z,27.32
2023-07-07T10:37:55.616Z,27.45
2023-07-07T10:38:56.968Z,27.52
2023-07-07T10:39:56.642Z,27.68
2023-07-07T10:40:55.607Z,27.67
2023-07-07T10:41:55.590Z,27.85
2023-07-07T10:42:55.570Z,27.93
2023-07-07T10:43:56.470Z,28.05
2023-07-07T10:44:55.607Z,28.05
2023-07-07T10:45:55.620Z,28.02
2023-07-07T10:46:55.573Z,28.05
2023-07-07T10:47:55.645Z,27.90
2023-07-07T10:48:55.542Z,27.85
2023-07-07T10:49:55.553Z,27.70
2023-07-07T10:50:55.529Z,27.65
2023-07-07T10:51:56.045Z,27.73
2023-07-07T10:53:56.538Z,27.80
2023-07-07T10:54:55.501Z,27.80
2023-07-07T10:55:55.522Z,27.96
2023-07-07T10:56:55.553Z,28.05
2023-07-07T10:57:55.541Z,28.23
2023-07-07T10:58:55.499Z,28.29
2023-07-07T10:59:55.519Z,28.41
2023-07-07T11:00:55.539Z,28.37
2023-07-07T11:01:55.925Z,28.45
2023-07-07T11:02:55.813Z,28.52
2023-07-07T11:03:57.277Z,28.67
2023-07-07T11:04:57.565Z,28.64
2023-07-07T11:06:04.129Z,28.69
2023-07-07T11:06:57.471Z,28.79
2023-07-07T11:07:55.429Z,28.88
2023-07-07T11:08:56.413Z,28.91
2023-07-07T11:09:57.013Z,29.04
2023-07-07T11:10:55.415Z,28.82
2023-07-07T11:11:55.360Z,28.76
2023-07-07T11:12:55.398Z,28.72
2023-07-07T11:13:55.454Z,28.75
2023-07-07T11:14:55.352Z,28.76
2023-07-07T11:15:55.337Z,28.76
2023-07-07T11:16:55.386Z,28.79
2023-07-07T11:17:55.339Z,28.81
2023-07-07T11:18:55.280Z,28.96
2023-07-07T11:19:55.784Z,29.02
2023-07-07T11:20:57.214Z,29.07
2023-07-07T11:21:55.262Z,29.07
2023-07-07T11:22:56.291Z,29.10
2023-07-07T11:23:55.249Z,29.12
2023-07-07T11:24:57.227Z,29.10
2023-07-07T11:25:56.234Z,29.04
2023-07-07T11:26:55.233Z,28.85
2023-07-07T11:27:55.291Z,28.70
2023-07-07T11:28:55.249Z,28.56
2023-07-07T11:29:55.248Z,28.59
2023-07-07T11:30:55.231Z,28.38
2023-07-07T11:31:55.264Z,28.20
2023-07-07T11:32:55.222Z,28.26
2023-07-07T11:33:55.173Z,28.32
2023-07-07T11:34:55.170Z,28.25
2023-07-07T11:35:55.157Z,28.19
2023-07-07T11:36:55.186Z,28.15
2023-07-07T11:37:55.144Z,28.10
2023-07-07T11:38:55.151Z,28.07
2023-07-07T11:39:55.133Z,28.19
2023-07-07T11:40:55.141Z,28.23
2023-07-07T11:41:55.123Z,28.29
2023-07-07T11:42:55.121Z,28.27
2023-07-07T11:43:55.127Z,28.41
2023-07-07T11:44:55.118Z,28.39
2023-07-07T11:45:55.082Z,28.41
2023-07-07T11:46:55.124Z,28.20
2023-07-07T11:47:55.131Z,28.19
2023-07-07T11:48:55.057Z,28.11
2023-07-07T11:49:55.044Z,28.01
2023-07-07T11:50:55.178Z,28.11
2023-07-07T11:51:55.899Z,28.07
2023-07-07T11:52:55.021Z,28.12
2023-07-07T11:53:55.021Z,28.19
2023-07-07T11:54:55.051Z,28.22
2023-07-07T11:55:55.065Z,28.22
2023-07-07T11:56:55.029Z,28.20
2023-07-07T11:57:55.010Z,28.27
2023-07-07T11:58:54.991Z,28.22
2023-07-07T11:59:54.986Z,28.14
2023-07-07T12:00:54.975Z,28.05
2023-07-07T12:01:54.995Z,28.00
2023-07-07T12:02:55.081Z,27.92
2023-07-07T12:03:55.100Z,27.98
2023-07-07T12:04:55.183Z,28.04
2023-07-07T12:05:56.005Z,27.96
2023-07-07T12:06:54.930Z,28.01
2023-07-07T12:07:54.936Z,27.96
2023-07-07T12:08:54.903Z,28.05
2023-07-07T12:09:54.890Z,28.15
2023-07-07T12:10:54.934Z,28.29
2023-07-07T12:11:54.872Z,28.41
2023-07-07T12:12:54.883Z,28.62
2023-07-07T12:13:55.516Z,28.74
2023-07-07T12:14:54.873Z,28.78
2023-07-07T12:15:54.968Z,28.86
2023-07-07T12:16:54.870Z,28.91
2023-07-07T12:17:54.863Z,29.02
2023-07-07T12:18:54.844Z,29.07
2023-07-07T12:19:55.487Z,29.12
2023-07-07T12:20:54.810Z,29.14
2023-07-07T12:21:54.812Z,29.27
2023-07-07T12:22:54.788Z,29.23
2023-07-07T12:23:54.792Z,29.23
2023-07-07T12:24:54.810Z,29.13
2023-07-07T12:25:54.797Z,29.16
2023-07-07T12:26:54.780Z,29.16
2023-07-07T21:19:07.416Z,19.36
2023-07-07T21:20:07.398Z,19.24
2023-07-07T21:21:07.383Z,19.16
2023-07-07T21:22:08.474Z,19.18
2023-07-07T21:23:08.480Z,19.24
2023-07-07T21:24:08.478Z,19.02
2023-07-07T21:25:08.704Z,19.11
2023-07-07T21:26:08.445Z,19.00
2023-07-07T21:27:08.430Z,19.02
2023-07-07T21:28:08.429Z,19.07
2023-07-07T21:29:08.409Z,18.99
2023-07-07T21:30:08.398Z,19.04
2023-07-07T21:31:08.413Z,18.98
2023-07-07T21:32:08.384Z,18.93
2023-07-07T21:33:08.473Z,18.92
2023-07-07T21:34:08.365Z,18.92
2023-07-07T21:35:10.045Z,18.92
2023-07-07T21:36:08.355Z,18.88
2023-07-07T21:37:08.337Z,18.75
2023-07-07T21:38:08.328Z,18.78
2023-07-07T21:39:08.321Z,18.75
2023-07-07T21:40:08.324Z,18.70
2023-07-07T21:41:08.309Z,18.73
2023-07-07T21:42:12.396Z,18.63
2023-07-07T21:43:09.280Z,18.73
2023-07-07T21:44:09.304Z,18.56
2023-07-07T21:45:08.274Z,18.55
2023-07-07T21:46:08.285Z,18.55
2023-07-07T21:47:08.251Z,18.45
2023-07-07T21:48:08.252Z,18.50
2023-07-07T21:49:08.242Z,18.38
2023-07-07T21:50:08.239Z,18.40